createdAt,value
2023-04-06T00:00:12.013Z,5.18
2023-04-06T00:00:34.810Z,4.95
2023-04-06T00:01:00.041Z,4.60
2023-04-06T00:01:22.791Z,4.68
2023-04-06T00:01:48.100Z,5.03
2023-04-06T00:02:11.443Z,5.03
2023-04-06T00:02:36.696Z,5.18
2023-04-06T00:02:59.898Z,5.22
2023-04-06T00:03:25.301Z,5.35
2023-04-06T00:03:50.660Z,4.70
2023-04-06T00:04:14.988Z,4.63
2023-04-06T00:04:41.056Z,4.90
2023-04-06T00:05:04.036Z,5.05
2023-04-06T00:05:29.016Z,5.10
2023-04-06T00:05:54.332Z,5.03
2023-04-06T00:06:17.474Z,5.10
2023-04-06T00:06:42.473Z,5.20
2023-04-06T00:07:05.495Z,5.72
2023-04-06T00:07:29.356Z,5.85
2023-04-06T00:07:55.309Z,5.50
2023-04-06T00:08:18.170Z,5.40
2023-04-06T00:08:44.105Z,5.53
2023-04-06T00:09:07.125Z,5.45
2023-04-06T00:09:32.377Z,5.32
2023-04-06T00:09:55.160Z,5.28
2023-04-06T00:10:18.157Z,5.78
2023-04-06T00:10:43.051Z,5.43
2023-04-06T00:11:05.894Z,5.40
2023-04-06T00:11:31.037Z,5.15
2023-04-06T00:11:53.810Z,5.53
2023-04-06T00:12:16.651Z,5.30
2023-04-06T00:12:41.925Z,5.80
2023-04-06T00:13:06.820Z,5.45
2023-04-06T00:13:29.609Z,5.60
2023-04-06T00:13:52.538Z,5.00
2023-04-06T00:14:18.348Z,5.30
2023-04-06T00:14:41.871Z,5.20
2023-04-06T00:15:08.332Z,5.20
2023-04-06T00:15:33.621Z,5.30
2023-04-06T00:15:56.360Z,4.85
2023-04-06T00:16:24.788Z,5.00
2023-04-06T00:16:48.020Z,5.25
2023-04-06T00:17:11.262Z,5.00
2023-04-06T00:17:36.523Z,5.20
2023-04-06T00:17:59.421Z,5.28
2023-04-06T00:18:22.624Z,5.22
2023-04-06T00:18:48.330Z,5.60
2023-04-06T00:19:11.542Z,5.20
2023-04-06T00:19:38.016Z,5.47
2023-04-06T00:20:01.141Z,5.32
2023-04-06T00:20:26.355Z,5.60
2023-04-06T00:20:49.276Z,5.50
2023-04-06T00:21:15.332Z,5.20
2023-04-06T00:21:38.282Z,5.00
2023-04-06T00:22:03.377Z,5.57
2023-04-06T00:22:26.585Z,5.10
2023-04-06T00:22:49.316Z,5.00
2023-04-06T00:23:15.228Z,4.88
2023-04-06T00:23:40.586Z,5.28
2023-04-06T00:24:05.296Z,5.50
2023-04-06T00:24:28.081Z,5.30
2023-04-06T00:24:51.312Z,5.63
2023-04-06T00:25:16.339Z,5.20
2023-04-06T00:25:41.600Z,5.68
2023-04-06T00:26:04.413Z,5.20
2023-04-06T00:26:29.696Z,5.25
2023-04-06T00:26:54.880Z,5.55
2023-04-06T00:27:17.628Z,5.55
2023-04-06T00:27:40.604Z,4.93
2023-04-06T00:28:04.748Z,5.30
2023-04-06T00:28:30.838Z,5.10
2023-04-06T00:28:53.827Z,4.90
2023-04-06T00:29:16.647Z,5.15
2023-04-06T00:29:40.598Z,5.20
2023-04-06T00:30:05.825Z,5.68
2023-04-06T00:30:28.597Z,5.30
2023-04-06T00:30:53.925Z,5.38
2023-04-06T00:31:16.784Z,5.20
2023-04-06T00:31:41.918Z,5.10
2023-04-06T00:32:04.841Z,5.18
2023-04-06T00:32:29.987Z,5.50
2023-04-06T00:32:52.947Z,5.40
2023-04-06T00:33:15.698Z,5.20
2023-04-06T00:33:38.663Z,5.57
2023-04-06T00:34:01.482Z,5.68
2023-04-06T00:34:24.326Z,5.55
2023-04-06T00:34:48.737Z,5.47
2023-04-06T00:35:12.182Z,4.93
2023-04-06T00:35:35.182Z,5.40
2023-04-06T00:36:00.490Z,5.15
2023-04-06T00:36:23.316Z,5.35
2023-04-06T00:36:48.480Z,5.07
2023-04-06T00:37:12.358Z,5.18
2023-04-06T00:37:35.897Z,5.43
2023-04-06T00:37:58.839Z,5.47
2023-04-06T00:38:22.576Z,5.72
2023-04-06T00:38:45.531Z,5.53
2023-04-06T00:39:08.568Z,5.32
2023-04-06T00:39:33.615Z,5.28
2023-04-06T00:39:56.419Z,5.60
2023-04-06T00:40:19.379Z,5.60
2023-04-06T00:40:42.200Z,5.72
2023-04-06T00:41:05.732Z,5.75
2023-04-06T00:41:31.572Z,5.07
2023-04-06T00:41:54.452Z,5.20
2023-04-06T00:42:19.395Z,5.13
2023-04-06T00:42:45.598Z,5.53
2023-04-06T00:43:10.169Z,5.00
2023-04-06T00:43:33.180Z,5.13
2023-04-06T00:43:58.529Z,5.45
2023-04-06T00:44:21.968Z,5.38
2023-04-06T00:44:44.768Z,5.13
2023-04-06T00:45:09.479Z,5.22
2023-04-06T00:45:34.830Z,5.15
2023-04-06T00:46:00.183Z,5.00
2023-04-06T00:46:23.149Z,4.93
2023-04-06T00:46:46.149Z,5.00
2023-04-06T00:47:08.992Z,4.90
2023-04-06T00:47:34.060Z,4.50
2023-04-06T00:47:59.758Z,4.88
2023-04-06T00:48:22.552Z,4.90
2023-04-06T00:48:45.597Z,4.65
2023-04-06T00:49:11.569Z,4.68
2023-04-06T00:49:34.493Z,5.00
2023-04-06T00:49:58.890Z,4.80
2023-04-06T00:50:23.837Z,4.82
2023-04-06T00:50:46.581Z,4.55
2023-04-06T00:51:11.832Z,5.10
2023-04-06T00:51:34.754Z,4.88
2023-04-06T00:51:59.795Z,5.07
2023-04-06T00:52:25.724Z,5.22
2023-04-06T00:52:51.011Z,5.32
2023-04-06T00:53:13.806Z,5.05
2023-04-06T00:53:36.566Z,4.75
2023-04-06T00:54:01.501Z,4.93
2023-04-06T00:54:24.304Z,4.57
2023-04-06T00:54:47.192Z,4.50
2023-04-06T00:55:12.464Z,4.70
2023-04-06T00:55:37.161Z,4.82
2023-04-06T00:55:59.989Z,4.45
2023-04-06T00:56:24.641Z,4.68
2023-04-06T00:56:47.551Z,5.00
2023-04-06T00:57:10.512Z,5.03
2023-04-06T00:57:33.336Z,5.05
2023-04-06T00:57:56.312Z,4.72
2023-04-06T00:58:21.610Z,5.18
2023-04-06T00:58:46.546Z,4.70
2023-04-06T00:59:11.551Z,4.85
2023-04-06T00:59:36.906Z,4.97
2023-04-06T01:00:03.056Z,4.85
2023-04-06T01:00:25.897Z,4.57
2023-04-06T01:00:52.156Z,4.72
2023-04-06T01:01:14.992Z,5.00
2023-04-06T01:01:37.902Z,5.35
2023-04-06T01:02:03.104Z,5.20
2023-04-06T01:02:27.344Z,5.35
2023-04-06T01:02:50.512Z,4.72
2023-04-06T01:03:15.544Z,5.20
2023-04-06T01:03:38.414Z,5.05
2023-04-06T01:04:03.816Z,4.70
2023-04-06T01:04:26.684Z,4.72
2023-04-06T01:04:50.602Z,4.82
2023-04-06T01:05:17.492Z,4.90
2023-04-06T01:05:41.834Z,4.80
2023-04-06T01:06:04.977Z,4.75
2023-04-06T01:06:30.158Z,4.63
2023-04-06T01:06:55.522Z,4.82
2023-04-06T01:07:18.354Z,4.78
2023-04-06T01:07:41.227Z,4.32
2023-04-06T01:08:06.427Z,4.75
2023-04-06T01:08:29.572Z,4.90
2023-04-06T01:08:52.430Z,4.78
2023-04-06T01:09:17.378Z,4.80
2023-04-06T01:09:43.349Z,4.45
2023-04-06T01:10:07.097Z,4.90
2023-04-06T01:10:32.458Z,4.70
2023-04-06T01:10:55.328Z,4.80
2023-04-06T01:11:19.197Z,4.78
2023-04-06T01:11:44.644Z,4.70
2023-04-06T01:12:07.527Z,5.07
2023-04-06T01:12:31.005Z,4.57
2023-04-06T01:12:56.302Z,4.82
2023-04-06T01:13:19.194Z,4.68
2023-04-06T01:13:44.397Z,4.60
2023-04-06T01:14:07.290Z,5.15
2023-04-06T01:14:32.408Z,5.00
2023-04-06T01:14:55.209Z,4.70
2023-04-06T01:15:18.184Z,4.93
2023-04-06T01:15:43.553Z,5.00
2023-04-06T01:16:07.157Z,5.03
2023-04-06T01:16:29.948Z,5.00
2023-04-06T01:16:53.120Z,4.88
2023-04-06T01:17:18.925Z,4.82
2023-04-06T01:17:42.660Z,4.72
2023-04-06T01:18:08.037Z,4.68
2023-04-06T01:18:33.633Z,4.70
2023-04-06T01:18:56.689Z,4.88
2023-04-06T01:19:21.730Z,5.18
2023-04-06T01:19:46.896Z,4.70
2023-04-06T01:20:10.221Z,4.50
2023-04-06T01:20:34.506Z,4.85
2023-04-06T01:20:59.448Z,4.78
2023-04-06T01:21:25.427Z,4.90
2023-04-06T01:21:50.510Z,4.80
2023-04-06T01:22:17.395Z,5.15
2023-04-06T01:22:40.238Z,5.18
2023-04-06T01:23:05.485Z,5.10
2023-04-06T01:23:28.395Z,4.88
2023-04-06T01:23:53.377Z,4.90
2023-04-06T01:24:16.136Z,4.88
2023-04-06T01:24:38.940Z,4.90
2023-04-06T01:25:01.788Z,4.72
2023-04-06T01:25:24.699Z,4.57
2023-04-06T01:25:50.433Z,4.72
2023-04-06T01:26:13.459Z,4.50
2023-04-06T01:26:38.635Z,5.30
2023-04-06T01:27:02.477Z,5.03
2023-04-06T01:27:27.494Z,4.80
2023-04-06T01:27:50.589Z,4.70
2023-04-06T01:28:13.527Z,4.70
2023-04-06T01:28:38.421Z,4.95
2023-04-06T01:29:04.578Z,4.88
2023-04-06T01:29:27.602Z,4.88
2023-04-06T01:29:52.761Z,4.80
2023-04-06T01:30:18.769Z,5.03
2023-04-06T01:30:43.939Z,5.38
2023-04-06T01:31:07.038Z,5.07
2023-04-06T01:31:29.920Z,5.10
2023-04-06T01:31:52.867Z,5.60
2023-04-06T01:32:17.886Z,5.00
2023-04-06T01:32:40.799Z,4.95
2023-04-06T01:33:06.927Z,5.03
2023-04-06T01:33:29.809Z,5.10
2023-04-06T01:33:55.852Z,4.93
2023-04-06T01:34:18.697Z,5.35
2023-04-06T01:34:44.020Z,5.13
2023-04-06T01:35:09.954Z,5.50
2023-04-06T01:35:32.780Z,5.60
2023-04-06T01:35:58.158Z,5.57
2023-04-06T01:36:21.224Z,5.18
2023-04-06T01:36:47.227Z,5.28
2023-04-06T01:37:10.076Z,5.45
2023-04-06T01:37:37.457Z,5.30
2023-04-06T01:38:00.803Z,5.10
2023-04-06T01:38:26.093Z,5.60
2023-04-06T01:38:48.884Z,5.70
2023-04-06T01:39:11.740Z,6.18
2023-04-06T01:39:34.575Z,5.90
2023-04-06T01:39:59.612Z,5.40
2023-04-06T01:40:22.912Z,5.40
2023-04-06T01:40:48.111Z,5.32
2023-04-06T01:41:10.963Z,5.97
2023-04-06T01:41:33.768Z,5.75
2023-04-06T01:41:56.650Z,5.60
2023-04-06T01:42:19.491Z,5.93
2023-04-06T01:42:44.451Z,6.18
2023-04-06T01:43:07.781Z,5.75
2023-04-06T01:43:30.863Z,5.65
2023-04-06T01:43:55.877Z,5.70
2023-04-06T01:44:22.120Z,5.53
2023-04-06T01:44:47.241Z,5.60
2023-04-06T01:45:11.256Z,5.72
2023-04-06T01:45:34.137Z,6.15
2023-04-06T01:45:59.119Z,6.35
2023-04-06T01:46:24.348Z,5.70
2023-04-06T01:46:47.248Z,6.55
2023-04-06T01:47:10.107Z,6.20
2023-04-06T01:47:35.329Z,6.00
2023-04-06T01:48:00.682Z,5.93
2023-04-06T01:48:23.623Z,5.90
2023-04-06T01:48:46.581Z,6.30
2023-04-06T01:49:11.694Z,6.20
2023-04-06T01:49:34.985Z,6.13
2023-04-06T01:49:57.918Z,6.05
2023-04-06T01:50:21.016Z,6.10
2023-04-06T01:50:44.009Z,6.50
2023-04-06T01:51:07.011Z,6.60
2023-04-06T01:51:29.880Z,6.25
2023-04-06T01:51:53.466Z,6.20
2023-04-06T01:52:16.868Z,6.13
2023-04-06T01:52:41.815Z,6.57
2023-04-06T01:53:04.707Z,6.35
2023-04-06T01:53:27.791Z,6.50
2023-04-06T01:53:50.795Z,6.63
2023-04-06T01:54:13.722Z,6.35
2023-04-06T01:54:36.653Z,6.35
2023-04-06T01:54:59.542Z,6.43
2023-04-06T01:55:22.587Z,6.38
2023-04-06T01:55:45.573Z,5.90
2023-04-06T01:56:08.606Z,6.63
2023-04-06T01:56:31.556Z,6.57
2023-04-06T01:56:54.692Z,6.40
2023-04-06T01:57:17.637Z,6.40
2023-04-06T01:57:40.646Z,6.32
2023-04-06T01:58:03.564Z,5.97
2023-04-06T01:58:26.764Z,6.30
2023-04-06T01:58:49.666Z,6.32
2023-04-06T01:59:12.687Z,6.03
2023-04-06T01:59:35.750Z,6.10
2023-04-06T01:59:58.592Z,6.50
2023-04-06T02:00:21.578Z,6.22
2023-04-06T02:00:44.364Z,6.10
2023-04-06T02:01:07.358Z,5.68
2023-04-06T02:01:30.476Z,5.70
2023-04-06T02:01:53.257Z,6.20
2023-04-06T02:02:17.224Z,5.78
2023-04-06T02:02:40.161Z,5.85
2023-04-06T02:03:03.182Z,5.40
2023-04-06T02:03:26.282Z,6.10
2023-04-06T02:03:49.211Z,6.25
2023-04-06T02:04:12.052Z,6.10
2023-04-06T02:04:34.897Z,5.63
2023-04-06T02:04:57.792Z,5.70
2023-04-06T02:05:21.826Z,5.85
2023-04-06T02:05:44.696Z,5.85
2023-04-06T02:06:07.858Z,5.63
2023-04-06T02:06:31.866Z,6.00
2023-04-06T02:06:54.735Z,5.18
2023-04-06T02:07:17.699Z,4.88
2023-04-06T02:07:42.174Z,5.15
2023-04-06T02:08:06.041Z,5.50
2023-04-06T02:08:28.974Z,5.82
2023-04-06T02:08:52.082Z,5.90
2023-04-06T02:09:15.717Z,5.65
2023-04-06T02:09:38.620Z,5.90
2023-04-06T02:10:01.466Z,5.72
2023-04-06T02:10:25.146Z,5.05
2023-04-06T02:10:47.941Z,5.60
2023-04-06T02:11:11.229Z,5.63
2023-04-06T02:11:34.074Z,4.85
2023-04-06T02:11:56.965Z,4.80
2023-04-06T02:12:19.887Z,5.30
2023-04-06T02:12:42.730Z,5.45
2023-04-06T02:13:05.550Z,5.38
2023-04-06T02:13:28.559Z,5.88
2023-04-06T02:13:51.591Z,5.65
2023-04-06T02:14:14.432Z,5.75
2023-04-06T02:14:38.642Z,5.70
2023-04-06T02:15:01.388Z,5.50
2023-04-06T02:15:24.326Z,5.20
2023-04-06T02:15:47.238Z,4.72
2023-04-06T02:16:10.230Z,5.32
2023-04-06T02:16:33.244Z,5.07
2023-04-06T02:16:56.375Z,5.00
2023-04-06T02:17:19.516Z,4.95
2023-04-06T02:17:42.557Z,5.20
2023-04-06T02:18:05.939Z,5.50
2023-04-06T02:18:29.636Z,5.20
2023-04-06T02:18:52.740Z,5.13
2023-04-06T02:19:15.707Z,5.32
2023-04-06T02:19:38.537Z,5.20
2023-04-06T02:20:01.572Z,5.68
2023-04-06T02:20:24.510Z,5.32
2023-04-06T02:20:47.435Z,5.38
2023-04-06T02:21:10.330Z,5.07
2023-04-06T02:21:33.634Z,5.07
2023-04-06T02:21:57.027Z,5.30
2023-04-06T02:22:19.864Z,5.10
2023-04-06T02:22:44.185Z,5.20
2023-04-06T02:23:08.061Z,5.40
2023-04-06T02:23:31.401Z,5.00
2023-04-06T02:23:55.098Z,5.30
2023-04-06T02:24:18.091Z,5.28
2023-04-06T02:24:41.486Z,5.47
2023-04-06T02:25:04.782Z,5.50
2023-04-06T02:25:27.826Z,5.60
2023-04-06T02:25:51.590Z,5.40
2023-04-06T02:26:14.566Z,5.65
2023-04-06T02:26:37.462Z,5.85
2023-04-06T02:27:00.993Z,5.68
2023-04-06T02:27:24.341Z,5.35
2023-04-06T02:27:47.142Z,5.45
2023-04-06T02:28:10.039Z,5.32
2023-04-06T02:28:32.834Z,5.85
2023-04-06T02:28:55.851Z,5.75
2023-04-06T02:29:18.687Z,5.70
2023-04-06T02:29:41.624Z,5.70
2023-04-06T02:30:04.810Z,6.00
2023-04-06T02:30:27.850Z,5.75
2023-04-06T02:30:50.693Z,5.40
2023-04-06T02:31:16.087Z,5.47
2023-04-06T02:31:39.253Z,5.80
2023-04-06T02:32:02.249Z,5.57
2023-04-06T02:32:25.178Z,6.00
2023-04-06T02:32:48.006Z,5.75
2023-04-06T02:33:10.931Z,5.40
2023-04-06T02:33:33.881Z,5.63
2023-04-06T02:33:56.657Z,5.80
2023-04-06T02:34:19.605Z,5.60
2023-04-06T02:34:44.728Z,5.95
2023-04-06T02:35:08.220Z,5.93
2023-04-06T02:35:31.691Z,5.80
2023-04-06T02:35:54.437Z,5.95
2023-04-06T02:36:17.459Z,6.00
2023-04-06T02:36:40.396Z,5.60
2023-04-06T02:37:05.883Z,5.97
2023-04-06T02:37:28.812Z,5.97
2023-04-06T02:37:53.206Z,5.70
2023-04-06T02:38:18.903Z,5.70
2023-04-06T02:38:44.882Z,5.85
2023-04-06T02:39:07.839Z,6.03
2023-04-06T02:39:31.201Z,6.15
2023-04-06T02:39:54.026Z,6.00
2023-04-06T02:40:19.531Z,6.28
2023-04-06T02:40:42.432Z,5.82
2023-04-06T02:41:05.254Z,6.10
2023-04-06T02:41:28.062Z,6.00
2023-04-06T02:41:50.875Z,6.20
2023-04-06T02:42:13.854Z,6.13
2023-04-06T02:42:36.801Z,6.82
2023-04-06T02:42:59.543Z,6.28
2023-04-06T02:43:22.435Z,6.15
2023-04-06T02:43:45.454Z,6.47
2023-04-06T02:44:11.120Z,6.70
2023-04-06T02:44:33.994Z,6.00
2023-04-06T02:44:57.030Z,6.40
2023-04-06T02:45:19.873Z,6.40
2023-04-06T02:45:42.662Z,6.55
2023-04-06T02:46:05.687Z,6.85
2023-04-06T02:46:28.838Z,6.90
2023-04-06T02:46:52.033Z,6.50
2023-04-06T02:47:14.835Z,6.63
2023-04-06T02:47:37.725Z,7.00
2023-04-06T02:48:00.660Z,7.10
2023-04-06T02:48:23.795Z,7.07
2023-04-06T02:48:46.644Z,6.93
2023-04-06T02:49:09.739Z,6.78
2023-04-06T02:49:32.800Z,7.18
2023-04-06T02:49:55.702Z,7.07
2023-04-06T02:50:18.581Z,6.88
2023-04-06T02:50:41.437Z,6.80
2023-04-06T02:51:04.504Z,8.27
2023-04-06T02:51:27.294Z,8.10
2023-04-06T02:51:50.132Z,8.10
2023-04-06T02:52:12.959Z,8.07
2023-04-06T02:52:35.762Z,8.02
2023-04-06T02:52:59.955Z,7.45
2023-04-06T02:53:22.869Z,7.18
2023-04-06T02:53:45.687Z,6.65
2023-04-06T02:54:09.488Z,6.93
2023-04-06T02:54:32.541Z,7.07
2023-04-06T02:54:55.438Z,7.32
2023-04-06T02:55:19.544Z,7.22
2023-04-06T02:55:44.123Z,7.18
2023-04-06T02:56:07.983Z,6.97
2023-04-06T02:56:30.914Z,7.28
2023-04-06T02:56:53.836Z,7.60
2023-04-06T02:57:16.785Z,7.18
2023-04-06T02:57:39.682Z,6.80
2023-04-06T02:58:02.537Z,7.15
2023-04-06T02:58:25.486Z,6.60
2023-04-06T02:58:48.454Z,6.95
2023-04-06T02:59:12.140Z,7.20
2023-04-06T02:59:35.320Z,6.55
2023-04-06T02:59:58.273Z,6.20
2023-04-06T03:00:21.999Z,6.22
2023-04-06T03:00:44.824Z,6.20
2023-04-06T03:01:07.740Z,5.68
2023-04-06T03:01:30.822Z,5.38
2023-04-06T03:01:54.172Z,5.55
2023-04-06T03:02:17.301Z,5.55
2023-04-06T03:02:41.191Z,5.88
2023-04-06T03:03:04.502Z,5.70
2023-04-06T03:03:27.656Z,5.88
2023-04-06T03:03:51.701Z,5.95
2023-04-06T03:04:14.888Z,5.75
2023-04-06T03:04:37.835Z,5.10
2023-04-06T03:05:04.314Z,4.90
2023-04-06T03:05:27.404Z,5.10
2023-04-06T03:05:50.579Z,4.88
2023-04-06T03:06:13.360Z,4.85
2023-04-06T03:06:36.320Z,5.13
2023-04-06T03:07:01.350Z,4.82
2023-04-06T03:07:24.484Z,5.00
2023-04-06T03:07:47.361Z,5.05
2023-04-06T03:08:11.638Z,4.90
2023-04-06T03:08:34.455Z,5.00
2023-04-06T03:09:00.489Z,4.78
2023-04-06T03:09:23.738Z,4.90
2023-04-06T03:09:46.541Z,4.50
2023-04-06T03:10:11.081Z,4.72
2023-04-06T03:10:33.878Z,5.07
2023-04-06T03:10:56.817Z,5.00
2023-04-06T03:11:19.658Z,5.20
2023-04-06T03:11:42.527Z,4.95
2023-04-06T03:12:07.048Z,4.60
2023-04-06T03:12:31.591Z,4.97
2023-04-06T03:12:54.474Z,4.75
2023-04-06T03:13:17.367Z,4.53
2023-04-06T03:13:40.658Z,4.88
2023-04-06T03:14:03.450Z,4.72
2023-04-06T03:14:26.234Z,4.55
2023-04-06T03:14:49.093Z,4.90
2023-04-06T03:15:12.524Z,4.78
2023-04-06T03:15:35.629Z,4.88
2023-04-06T03:15:58.517Z,4.50
2023-04-06T03:16:21.566Z,4.40
2023-04-06T03:16:45.334Z,5.00
2023-04-06T03:17:08.129Z,4.80
2023-04-06T03:17:31.444Z,5.15
2023-04-06T03:17:54.454Z,4.93
2023-04-06T03:18:21.764Z,5.10
2023-04-06T03:18:46.283Z,5.10
2023-04-06T03:19:09.394Z,5.15
2023-04-06T03:19:32.599Z,5.47
2023-04-06T03:19:55.331Z,5.30
2023-04-06T03:20:18.296Z,5.20
2023-04-06T03:20:41.827Z,5.03
2023-04-06T03:21:04.789Z,5.43
2023-04-06T03:21:27.629Z,5.60
2023-04-06T03:21:50.910Z,6.13
2023-04-06T03:22:13.651Z,5.53
2023-04-06T03:22:36.416Z,5.38
2023-04-06T03:22:59.423Z,5.30
2023-04-06T03:23:24.056Z,5.00
2023-04-06T03:23:46.856Z,5.28
2023-04-06T03:24:09.753Z,4.70
2023-04-06T03:24:35.761Z,5.20
2023-04-06T03:24:58.651Z,5.20
2023-04-06T03:25:21.554Z,5.30
2023-04-06T03:25:44.412Z,4.78
2023-04-06T03:26:07.336Z,5.10
2023-04-06T03:26:32.532Z,4.85
2023-04-06T03:26:56.209Z,4.70
2023-04-06T03:27:19.201Z,4.68
2023-04-06T03:27:42.136Z,4.30
2023-04-06T03:28:05.175Z,5.38
2023-04-06T03:28:28.070Z,5.35
2023-04-06T03:28:50.980Z,5.18
2023-04-06T03:29:16.030Z,4.93
2023-04-06T03:29:39.089Z,4.90
2023-04-06T03:30:01.995Z,4.80
2023-04-06T03:30:27.811Z,5.45
2023-04-06T03:30:50.995Z,4.88
2023-04-06T03:31:13.853Z,4.85
2023-04-06T03:31:36.912Z,4.80
2023-04-06T03:31:59.825Z,5.00
2023-04-06T03:32:22.750Z,5.15
2023-04-06T03:32:45.992Z,5.15
2023-04-06T03:33:08.799Z,5.15
2023-04-06T03:33:34.419Z,5.78
2023-04-06T03:34:00.485Z,4.93
2023-04-06T03:34:23.293Z,4.90
2023-04-06T03:34:46.179Z,5.15
2023-04-06T03:35:10.088Z,5.20
2023-04-06T03:35:32.931Z,5.63
2023-04-06T03:35:56.408Z,5.78
2023-04-06T03:36:19.352Z,5.70
2023-04-06T03:36:42.194Z,5.40
2023-04-06T03:37:10.429Z,5.25
2023-04-06T03:37:33.731Z,5.20
2023-04-06T03:37:56.579Z,5.00
2023-04-06T03:38:19.838Z,5.22
2023-04-06T03:38:46.797Z,5.30
2023-04-06T03:39:09.852Z,5.07
2023-04-06T03:39:33.313Z,5.20
2023-04-06T03:39:56.227Z,5.05
2023-04-06T03:40:19.186Z,5.25
2023-04-06T03:40:44.434Z,5.32
2023-04-06T03:41:07.319Z,5.15
2023-04-06T03:41:30.207Z,5.32
2023-04-06T03:41:53.111Z,5.20
2023-04-06T03:42:16.515Z,5.10
2023-04-06T03:42:39.344Z,4.90
2023-04-06T03:43:02.163Z,5.00
2023-04-06T03:43:26.799Z,4.97
2023-04-06T03:43:49.615Z,5.00
2023-04-06T03:44:12.404Z,4.70
2023-04-06T03:44:35.704Z,4.55
2023-04-06T03:44:58.487Z,4.80
2023-04-06T03:45:21.427Z,4.68
2023-04-06T03:45:44.253Z,5.03
2023-04-06T03:46:07.231Z,4.95
2023-04-06T03:46:30.231Z,5.00
2023-04-06T03:46:54.238Z,5.07
2023-04-06T03:47:17.160Z,4.70
2023-04-06T03:47:40.079Z,4.80
2023-04-06T03:48:03.105Z,4.40
2023-04-06T03:48:26.372Z,4.43
2023-04-06T03:48:49.929Z,5.00
2023-04-06T03:49:12.882Z,4.85
2023-04-06T03:49:35.993Z,4.82
2023-04-06T03:49:59.139Z,5.00
2023-04-06T03:50:22.108Z,5.10
2023-04-06T03:50:45.334Z,4.50
2023-04-06T03:51:08.458Z,4.85
2023-04-06T03:51:31.923Z,4.72
2023-04-06T03:51:54.724Z,5.10
2023-04-06T03:52:17.761Z,5.30
2023-04-06T03:52:40.838Z,4.93
2023-04-06T03:53:04.535Z,4.88
2023-04-06T03:53:27.899Z,5.25
2023-04-06T03:53:53.277Z,5.00
2023-04-06T03:54:16.120Z,4.80
2023-04-06T03:54:39.165Z,4.65
2023-04-06T03:55:02.040Z,4.68
2023-04-06T03:55:24.973Z,4.82
2023-04-06T03:55:48.072Z,4.60
2023-04-06T03:56:10.902Z,5.20
2023-04-06T03:56:33.753Z,5.18
2023-04-06T03:56:56.581Z,5.10
2023-04-06T03:57:19.363Z,5.50
2023-04-06T03:57:42.888Z,5.70
2023-04-06T03:58:05.672Z,5.45
2023-04-06T03:58:28.426Z,5.30
2023-04-06T03:58:52.444Z,5.03
2023-04-06T03:59:16.290Z,5.05
2023-04-06T03:59:39.218Z,5.53
2023-04-06T04:00:02.251Z,4.90
2023-04-06T04:00:25.468Z,5.10
2023-04-06T04:00:48.335Z,5.03
2023-04-06T04:01:11.196Z,4.88
2023-04-06T04:01:34.012Z,5.25
2023-04-06T04:01:56.941Z,5.20
2023-04-06T04:02:19.741Z,4.72
2023-04-06T04:02:42.901Z,4.93
2023-04-06T04:03:06.299Z,4.50
2023-04-06T04:03:29.320Z,4.80
2023-04-06T04:03:52.928Z,4.90
2023-04-06T04:04:16.183Z,4.75
2023-04-06T04:04:39.071Z,4.82
2023-04-06T04:05:02.053Z,4.70
2023-04-06T04:05:26.447Z,4.85
2023-04-06T04:05:49.302Z,4.95
2023-04-06T04:06:12.151Z,5.20
2023-04-06T04:06:34.960Z,4.93
2023-04-06T04:06:57.782Z,4.50
2023-04-06T04:07:20.643Z,4.55
2023-04-06T04:07:43.488Z,5.10
2023-04-06T04:08:06.401Z,5.30
2023-04-06T04:08:29.271Z,4.90
2023-04-06T04:08:53.492Z,4.95
2023-04-06T04:09:16.371Z,4.93
2023-04-06T04:09:39.277Z,5.07
2023-04-06T04:10:02.193Z,5.07
2023-04-06T04:10:25.004Z,5.10
2023-04-06T04:10:47.841Z,4.88
2023-04-06T04:11:10.785Z,5.22
2023-04-06T04:11:33.615Z,5.40
2023-04-06T04:11:56.981Z,5.45
2023-04-06T04:12:19.812Z,5.20
2023-04-06T04:12:42.551Z,4.88
2023-04-06T04:13:05.471Z,4.93
2023-04-06T04:13:28.240Z,5.28
2023-04-06T04:13:51.042Z,5.25
2023-04-06T04:14:13.916Z,4.93
2023-04-06T04:14:36.686Z,4.82
2023-04-06T04:14:59.449Z,5.05
2023-04-06T04:15:22.240Z,4.80
2023-04-06T04:15:45.116Z,4.85
2023-04-06T04:16:08.196Z,4.45
2023-04-06T04:16:34.124Z,4.82
2023-04-06T04:16:57.100Z,5.07
2023-04-06T04:17:19.946Z,5.05
2023-04-06T04:17:48.083Z,4.85
2023-04-06T04:18:11.079Z,4.57
2023-04-06T04:18:33.965Z,4.57
2023-04-06T04:18:56.794Z,4.78
2023-04-06T04:19:19.615Z,4.70
2023-04-06T04:19:42.592Z,4.70
2023-04-06T04:20:06.769Z,5.30
2023-04-06T04:20:29.645Z,4.90
2023-04-06T04:20:52.495Z,4.65
2023-04-06T04:21:15.714Z,4.57
2023-04-06T04:21:44.918Z,4.75
2023-04-06T04:22:07.854Z,4.68
2023-04-06T04:22:32.801Z,4.70
2023-04-06T04:22:55.690Z,4.80
2023-04-06T04:23:18.594Z,4.65
2023-04-06T04:23:41.715Z,4.47
2023-04-06T04:24:07.124Z,4.75
2023-04-06T04:24:30.002Z,4.95
2023-04-06T04:24:52.740Z,5.28
2023-04-06T04:25:15.745Z,5.05
2023-04-06T04:25:38.727Z,4.72
2023-04-06T04:26:01.756Z,5.05
2023-04-06T04:26:24.647Z,5.32
2023-04-06T04:26:47.689Z,4.88
2023-04-06T04:27:10.936Z,4.90
2023-04-06T04:27:33.671Z,4.68
2023-04-06T04:27:56.641Z,5.13
2023-04-06T04:28:19.687Z,5.03
2023-04-06T04:28:42.488Z,4.85
2023-04-06T04:29:06.736Z,4.38
2023-04-06T04:29:30.040Z,4.60
2023-04-06T04:29:53.211Z,5.15
2023-04-06T04:30:16.512Z,5.18
2023-04-06T04:30:39.295Z,5.63
2023-04-06T04:31:02.147Z,6.13
2023-04-06T04:31:25.062Z,6.07
2023-04-06T04:31:47.976Z,7.10
2023-04-06T04:32:10.968Z,7.35
2023-04-06T04:32:33.905Z,7.28
2023-04-06T04:32:57.008Z,6.88
2023-04-06T04:33:19.862Z,6.28
2023-04-06T04:33:42.851Z,5.82
2023-04-06T04:34:07.957Z,5.43
2023-04-06T04:34:30.848Z,5.55
2023-04-06T04:34:53.979Z,5.90
2023-04-06T04:35:16.999Z,6.43
2023-04-06T04:35:39.874Z,6.72
2023-04-06T04:36:02.809Z,6.97
2023-04-06T04:36:27.071Z,6.63
2023-04-06T04:36:50.120Z,6.93
2023-04-06T04:37:13.097Z,7.20
2023-04-06T04:37:36.512Z,6.85
2023-04-06T04:37:59.259Z,7.43
2023-04-06T04:38:22.580Z,7.07
2023-04-06T04:38:45.419Z,6.15
2023-04-06T04:39:09.892Z,6.03
2023-04-06T04:39:33.139Z,6.35
2023-04-06T04:39:56.061Z,5.75
2023-04-06T04:40:18.986Z,5.40
2023-04-06T04:40:41.848Z,5.82
2023-04-06T04:41:04.782Z,5.90
2023-04-06T04:41:27.581Z,6.00
2023-04-06T04:41:50.465Z,5.65
2023-04-06T04:42:13.306Z,5.65
2023-04-06T04:42:36.107Z,6.32
2023-04-06T04:42:58.992Z,6.63
2023-04-06T04:43:21.967Z,6.15
2023-04-06T04:43:44.808Z,5.75
2023-04-06T04:44:07.562Z,5.80
2023-04-06T04:44:30.483Z,6.30
2023-04-06T04:44:53.281Z,6.15
2023-04-06T04:45:16.278Z,6.38
2023-04-06T04:45:39.157Z,6.30
2023-04-06T04:46:02.124Z,6.38
2023-04-06T04:46:25.102Z,6.45
2023-04-06T04:46:48.420Z,6.68
2023-04-06T04:47:11.339Z,6.60
2023-04-06T04:47:34.238Z,7.18
2023-04-06T04:47:57.217Z,7.07
2023-04-06T04:48:20.058Z,6.32
2023-04-06T04:48:43.001Z,6.20
2023-04-06T04:49:06.293Z,6.07
2023-04-06T04:49:29.594Z,5.93
2023-04-06T04:49:52.409Z,6.20
2023-04-06T04:50:16.493Z,5.63
2023-04-06T04:50:39.331Z,5.88
2023-04-06T04:51:02.217Z,5.97
2023-04-06T04:51:25.954Z,6.28
2023-04-06T04:51:48.754Z,6.40
2023-04-06T04:52:11.613Z,6.50
2023-04-06T04:52:34.409Z,6.43
2023-04-06T04:52:57.357Z,5.88
2023-04-06T04:53:20.156Z,6.10
2023-04-06T04:53:43.022Z,5.80
2023-04-06T04:54:06.189Z,5.53
2023-04-06T04:54:30.561Z,6.13
2023-04-06T04:54:53.340Z,6.65
2023-04-06T04:55:19.537Z,7.40
2023-04-06T04:55:42.304Z,7.47
2023-04-06T04:56:05.617Z,7.38
2023-04-06T04:56:29.944Z,8.07
2023-04-06T04:56:53.386Z,8.73
2023-04-06T04:57:16.371Z,9.25
2023-04-06T04:57:39.133Z,9.23
2023-04-06T04:58:02.094Z,8.80
2023-04-06T04:58:25.107Z,8.80
2023-04-06T04:58:47.888Z,8.35
2023-04-06T04:59:10.932Z,8.27
2023-04-06T04:59:35.969Z,8.23
2023-04-06T04:59:59.141Z,7.93
2023-04-06T05:00:22.284Z,7.43
2023-04-06T05:00:45.165Z,7.35
2023-04-06T05:01:07.983Z,8.15
2023-04-06T05:01:40.848Z,8.50
2023-04-06T05:02:06.741Z,9.13
2023-04-06T05:02:32.486Z,9.50
2023-04-06T05:02:55.967Z,10.38
2023-04-06T05:03:21.654Z,10.13
2023-04-06T05:03:44.714Z,9.30
2023-04-06T05:04:07.622Z,9.65
2023-04-06T05:04:30.523Z,9.80
2023-04-06T05:04:53.301Z,9.23
2023-04-06T05:05:16.189Z,9.15
2023-04-06T05:05:39.017Z,10.00
2023-04-06T05:06:01.744Z,9.82
2023-04-06T05:06:24.658Z,9.60
2023-04-06T05:06:47.525Z,9.20
2023-04-06T05:07:10.646Z,9.68
2023-04-06T05:07:33.502Z,9.88
2023-04-06T05:07:56.234Z,9.43
2023-04-06T05:08:19.051Z,9.68
2023-04-06T05:08:42.419Z,10.07
2023-04-06T05:09:05.240Z,9.68
2023-04-06T05:09:29.487Z,9.98
2023-04-06T05:09:52.355Z,9.93
2023-04-06T05:10:15.537Z,10.25
2023-04-06T05:10:38.268Z,10.65
2023-04-06T05:11:01.057Z,10.57
2023-04-06T05:11:23.867Z,10.25
2023-04-06T05:11:46.795Z,10.70
2023-04-06T05:12:09.822Z,11.10
2023-04-06T05:12:32.567Z,11.38
2023-04-06T05:12:55.899Z,10.48
2023-04-06T05:13:18.797Z,10.50
2023-04-06T05:13:41.603Z,11.15